sensor_id;sensor_type;location;lat;lon;timestamp;P1;durP1;ratioP1;P2;durP2;ratioP2
12900;SDS011;6518;50.930;5.344;2022-09-01T00:01:34;4.40;;;1.73;;
12900;SDS011;6518;50.930;5.344;2022-09-01T00:04:07;4.15;;;1.60;;
12900;SDS011;6518;50.930;5.344;2022-09-01T00:06:36;2.75;;;1.73;;
12900;SDS011;6518;50.930;5.344;2022-09-01T00:09:05;4.72;;;1.60;;
12900;SDS011;6518;50.930;5.344;2022-09-01T00:11:33;2.00;;;1.40;;
12900;SDS011;6518;50.930;5.344;2022-09-01T00:14:01;4.53;;;1.45;;
12900;SDS011;6518;50.930;5.344;2022-09-01T00:16:30;3.00;;;1.50;;
12900;SDS011;6518;50.930;5.344;2022-09-01T00:18:57;3.70;;;1.45;;
12900;SDS011;6518;50.930;5.344;2022-09-01T00:21:27;3.17;;;1.45;;
12900;SDS011;6518;50.930;5.344;2022-09-01T00:23:55;4.50;;;1.58;;
12900;SDS011;6518;50.930;5.344;2022-09-01T00:26:22;4.72;;;1.75;;
12900;SDS011;6518;50.930;5.344;2022-09-01T00:28:49;3.05;;;1.30;;
12900;SDS011;6518;50.930;5.344;2022-09-01T00:31:17;4.53;;;1.40;;
12900;SDS011;6518;50.930;5.344;2022-09-01T00:33:44;4.55;;;1.50;;
12900;SDS011;6518;50.930;5.344;2022-09-01T00:36:12;3.55;;;1.80;;
12900;SDS011;6518;50.930;5.344;2022-09-01T00:38:40;3.17;;;1.60;;
12900;SDS011;6518;50.930;5.344;2022-09-01T00:41:08;3.50;;;1.30;;
12900;SDS011;6518;50.930;5.344;2022-09-01T00:43:36;2.78;;;1.42;;
12900;SDS011;6518;50.930;5.344;2022-09-01T00:46:07;2.72;;;1.45;;
12900;SDS011;6518;50.930;5.344;2022-09-01T00:48:37;5.30;;;1.55;;
12900;SDS011;6518;50.930;5.344;2022-09-01T00:51:04;4.53;;;1.65;;
12900;SDS011;6518;50.930;5.344;2022-09-01T00:53:34;2.63;;;1.50;;
12900;SDS011;6518;50.930;5.344;2022-09-01T00:56:05;4.47;;;1.85;;
12900;SDS011;6518;50.930;5.344;2022-09-01T00:58:33;3.58;;;1.35;;
12900;SDS011;6518;50.930;5.344;2022-09-01T01:01:03;2.72;;;1.52;;
12900;SDS011;6518;50.930;5.344;2022-09-01T01:03:31;4.50;;;1.70;;
12900;SDS011;6518;50.930;5.344;2022-09-01T01:05:59;2.95;;;1.45;;
12900;SDS011;6518;50.930;5.344;2022-09-01T01:08:33;1.88;;;1.50;;
12900;SDS011;6518;50.930;5.344;2022-09-01T01:11:02;3.08;;;1.50;;
12900;SDS011;6518;50.930;5.344;2022-09-01T01:13:34;2.55;;;1.38;;
12900;SDS011;6518;50.930;5.344;2022-09-01T01:16:15;3.15;;;1.42;;
12900;SDS011;6518;50.930;5.344;2022-09-01T01:18:42;2.40;;;1.45;;
12900;SDS011;6518;50.930;5.344;2022-09-01T01:21:13;2.08;;;1.50;;
12900;SDS011;6518;50.930;5.344;2022-09-01T01:24:00;5.68;;;1.65;;
12900;SDS011;6518;50.930;5.344;2022-09-01T01:26:33;4.72;;;1.17;;
12900;SDS011;6518;50.930;5.344;2022-09-01T01:29:00;2.70;;;1.70;;
12900;SDS011;6518;50.930;5.344;2022-09-01T01:31:27;3.55;;;1.42;;
12900;SDS011;6518;50.930;5.344;2022-09-01T01:33:55;5.20;;;1.60;;
12900;SDS011;6518;50.930;5.344;2022-09-01T01:36:23;2.65;;;1.63;;
12900;SDS011;6518;50.930;5.344;2022-09-01T01:38:56;2.75;;;1.60;;
12900;SDS011;6518;50.930;5.344;2022-09-01T01:41:26;7.03;;;1.88;;
12900;SDS011;6518;50.930;5.344;2022-09-01T01:43:56;6.88;;;1.65;;
12900;SDS011;6518;50.930;5.344;2022-09-01T01:46:23;5.45;;;1.52;;
12900;SDS011;6518;50.930;5.344;2022-09-01T01:48:51;7.88;;;1.73;;
12900;SDS011;6518;50.930;5.344;2022-09-01T01:51:20;2.70;;;1.60;;
12900;SDS011;6518;50.930;5.344;2022-09-01T01:53:51;3.08;;;1.70;;
12900;SDS011;6518;50.930;5.344;2022-09-01T01:56:20;4.88;;;1.60;;
12900;SDS011;6518;50.930;5.344;2022-09-01T01:58:49;2.13;;;1.50;;
12900;SDS011;6518;50.930;5.344;2022-09-01T02:01:22;3.15;;;1.95;;
12900;SDS011;6518;50.930;5.344;2022-09-01T02:03:49;4.88;;;1.80;;
12900;SDS011;6518;50.930;5.344;2022-09-01T02:06:19;3.42;;;1.48;;
12900;SDS011;6518;50.930;5.344;2022-09-01T02:08:49;2.22;;;1.42;;
12900;SDS011;6518;50.930;5.344;2022-09-01T02:11:17;2.72;;;1.70;;
12900;SDS011;6518;50.930;5.344;2022-09-01T02:13:45;3.33;;;1.40;;
12900;SDS011;6518;50.930;5.344;2022-09-01T02:16:13;3.03;;;1.70;;
12900;SDS011;6518;50.930;5.344;2022-09-01T02:18:43;4.95;;;1.58;;
12900;SDS011;6518;50.930;5.344;2022-09-01T02:21:12;4.80;;;1.67;;
12900;SDS011;6518;50.930;5.344;2022-09-01T02:23:44;6.50;;;1.80;;
12900;SDS011;6518;50.930;5.344;2022-09-01T02:26:13;5.35;;;1.70;;
12900;SDS011;6518;50.930;5.344;2022-09-01T02:28:43;10.15;;;1.80;;
12900;SDS011;6518;50.930;5.344;2022-09-01T02:31:13;3.08;;;1.70;;
12900;SDS011;6518;50.930;5.344;2022-09-01T02:33:45;3.30;;;1.60;;
12900;SDS011;6518;50.930;5.344;2022-09-01T02:36:14;1.85;;;1.42;;
12900;SDS011;6518;50.930;5.344;2022-09-01T02:38:43;2.45;;;1.73;;
12900;SDS011;6518;50.930;5.344;2022-09-01T02:41:13;2.22;;;1.65;;
12900;SDS011;6518;50.930;5.344;2022-09-01T02:43:47;2.58;;;1.73;;
12900;SDS011;6518;50.930;5.344;2022-09-01T02:46:14;5.60;;;1.40;;
12900;SDS011;6518;50.930;5.344;2022-09-01T02:48:42;5.22;;;1.60;;
12900;SDS011;6518;50.930;5.344;2022-09-01T02:51:16;5.30;;;1.50;;
12900;SDS011;6518;50.930;5.344;2022-09-01T02:53:45;5.97;;;1.70;;
12900;SDS011;6518;50.930;5.344;2022-09-01T02:56:16;3.90;;;1.50;;
12900;SDS011;6518;50.930;5.344;2022-09-01T02:58:44;2.95;;;1.90;;
12900;SDS011;6518;50.930;5.344;2022-09-01T03:01:13;4.13;;;1.40;;
12900;SDS011;6518;50.930;5.344;2022-09-01T03:03:48;2.65;;;1.70;;
12900;SDS011;6518;50.930;5.344;2022-09-01T03:06:17;2.10;;;1.60;;
12900;SDS011;6518;50.930;5.344;2022-09-01T03:08:45;4.43;;;1.98;;
12900;SDS011;6518;50.930;5.344;2022-09-01T03:11:12;2.80;;;1.52;;
12900;SDS011;6518;50.930;5.344;2022-09-01T03:13:40;3.13;;;1.70;;
12900;SDS011;6518;50.930;5.344;2022-09-01T03:16:07;3.20;;;1.40;;
12900;SDS011;6518;50.930;5.344;2022-09-01T03:18:35;6.07;;;1.98;;
12900;SDS011;6518;50.930;5.344;2022-09-01T03:21:05;4.97;;;2.08;;
12900;SDS011;6518;50.930;5.344;2022-09-01T03:23:33;4.47;;;1.60;;
12900;SDS011;6518;50.930;5.344;2022-09-01T03:26:00;7.32;;;1.88;;
12900;SDS011;6518;50.930;5.344;2022-09-01T03:28:28;4.95;;;1.80;;
12900;SDS011;6518;50.930;5.344;2022-09-01T03:30:56;4.30;;;1.65;;
12900;SDS011;6518;50.930;5.344;2022-09-01T03:33:24;4.57;;;1.98;;
12900;SDS011;6518;50.930;5.344;2022-09-01T03:35:52;3.47;;;1.90;;
12900;SDS011;6518;50.930;5.344;2022-09-01T03:38:22;2.85;;;1.65;;
12900;SDS011;6518;50.930;5.344;2022-09-01T03:40:50;2.60;;;1.70;;
12900;SDS011;6518;50.930;5.344;2022-09-01T03:43:18;5.05;;;2.25;;
12900;SDS011;6518;50.930;5.344;2022-09-01T03:45:47;2.85;;;1.80;;
12900;SDS011;6518;50.930;5.344;2022-09-01T03:48:14;2.78;;;1.60;;
12900;SDS011;6518;50.930;5.344;2022-09-01T03:50:42;3.30;;;2.03;;
12900;SDS011;6518;50.930;5.344;2022-09-01T03:53:11;5.15;;;1.73;;
12900;SDS011;6518;50.930;5.344;2022-09-01T03:55:42;7.78;;;2.10;;
12900;SDS011;6518;50.930;5.344;2022-09-01T03:58:11;4.60;;;2.00;;
12900;SDS011;6518;50.930;5.344;2022-09-01T04:00:44;5.25;;;1.90;;
12900;SDS011;6518;50.930;5.344;2022-09-01T04:03:14;8.48;;;2.50;;
12900;SDS011;6518;50.930;5.344;2022-09-01T04:05:47;4.00;;;2.20;;
12900;SDS011;6518;50.930;5.344;2022-09-01T04:08:16;5.07;;;1.90;;
12900;SDS011;6518;50.930;5.344;2022-09-01T04:10:46;6.38;;;2.58;;
12900;SDS011;6518;50.930;5.344;2022-09-01T04:13:15;4.00;;;2.30;;
12900;SDS011;6518;50.930;5.344;2022-09-01T04:15:42;4.90;;;1.98;;
12900;SDS011;6518;50.930;5.344;2022-09-01T04:18:09;4.65;;;2.30;;
12900;SDS011;6518;50.930;5.344;2022-09-01T04:20:45;5.60;;;1.85;;
12900;SDS011;6518;50.930;5.344;2022-09-01T04:23:14;3.58;;;2.05;;
12900;SDS011;6518;50.930;5.344;2022-09-01T04:25:47;2.28;;;1.80;;
12900;SDS011;6518;50.930;5.344;2022-09-01T04:28:15;4.35;;;2.08;;
12900;SDS011;6518;50.930;5.344;2022-09-01T04:30:48;3.90;;;2.33;;
12900;SDS011;6518;50.930;5.344;2022-09-01T04:33:16;5.38;;;2.03;;
12900;SDS011;6518;50.930;5.344;2022-09-01T04:35:43;4.57;;;2.20;;
12900;SDS011;6518;50.930;5.344;2022-09-01T04:38:10;3.72;;;2.15;;
12900;SDS011;6518;50.930;5.344;2022-09-01T04:40:40;5.70;;;2.55;;
12900;SDS011;6518;50.930;5.344;2022-09-01T04:43:09;4.60;;;2.22;;
12900;SDS011;6518;50.930;5.344;2022-09-01T04:45:36;6.00;;;1.98;;
12900;SDS011;6518;50.930;5.344;2022-09-01T04:48:09;4.72;;;2.33;;
12900;SDS011;6518;50.930;5.344;2022-09-01T04:50:38;5.57;;;2.28;;
12900;SDS011;6518;50.930;5.344;2022-09-01T04:53:06;4.85;;;2.33;;
12900;SDS011;6518;50.930;5.344;2022-09-01T04:55:36;5.60;;;2.58;;
12900;SDS011;6518;50.930;5.344;2022-09-01T04:58:09;7.57;;;2.70;;
12900;SDS011;6518;50.930;5.344;2022-09-01T05:00:38;7.68;;;2.30;;
12900;SDS011;6518;50.930;5.344;2022-09-01T05:03:05;5.40;;;2.45;;
12900;SDS011;6518;50.930;5.344;2022-09-01T05:05:35;6.20;;;2.47;;
12900;SDS011;6518;50.930;5.344;2022-09-01T05:08:07;6.03;;;2.60;;
12900;SDS011;6518;50.930;5.344;2022-09-01T05:10:38;7.32;;;2.90;;
12900;SDS011;6518;50.930;5.344;2022-09-01T05:13:07;6.35;;;2.70;;
12900;SDS011;6518;50.930;5.344;2022-09-01T05:15:37;4.75;;;2.38;;
12900;SDS011;6518;50.930;5.344;2022-09-01T05:18:11;8.02;;;2.42;;
12900;SDS011;6518;50.930;5.344;2022-09-01T05:20:38;5.97;;;2.42;;
12900;SDS011;6518;50.930;5.344;2022-09-01T05:23:07;7.65;;;2.72;;
12900;SDS011;6518;50.930;5.344;2022-09-01T05:25:38;6.55;;;2.58;;
12900;SDS011;6518;50.930;5.344;2022-09-01T05:28:06;4.72;;;2.38;;
12900;SDS011;6518;50.930;5.344;2022-09-01T05:30:38;6.35;;;2.50;;
12900;SDS011;6518;50.930;5.344;2022-09-01T05:33:07;5.90;;;3.03;;
12900;SDS011;6518;50.930;5.344;2022-09-01T05:35:36;6.28;;;2.53;;
12900;SDS011;6518;50.930;5.344;2022-09-01T05:38:07;5.03;;;2.78;;
12900;SDS011;6518;50.930;5.344;2022-09-01T05:40:37;5.80;;;3.00;;
12900;SDS011;6518;50.930;5.344;2022-09-01T05:43:05;6.40;;;2.97;;
12900;SDS011;6518;50.930;5.344;2022-09-01T05:45:35;6.70;;;2.80;;
12900;SDS011;6518;50.930;5.344;2022-09-01T05:48:04;5.55;;;2.70;;
12900;SDS011;6518;50.930;5.344;2022-09-01T05:50:33;9.25;;;3.33;;
12900;SDS011;6518;50.930;5.344;2022-09-01T05:53:04;5.78;;;2.50;;
12900;SDS011;6518;50.930;5.344;2022-09-01T05:55:35;6.47;;;3.20;;
12900;SDS011;6518;50.930;5.344;2022-09-01T05:58:02;9.93;;;3.20;;
12900;SDS011;6518;50.930;5.344;2022-09-01T06:00:29;6.40;;;3.45;;
12900;SDS011;6518;50.930;5.344;2022-09-01T06:02:59;5.38;;;3.00;;
12900;SDS011;6518;50.930;5.344;2022-09-01T06:05:30;5.38;;;3.10;;
12900;SDS011;6518;50.930;5.344;2022-09-01T06:08:00;7.85;;;2.72;;
12900;SDS011;6518;50.930;5.344;2022-09-01T06:10:30;5.40;;;2.60;;
12900;SDS011;6518;50.930;5.344;2022-09-01T06:12:59;6.22;;;2.65;;
12900;SDS011;6518;50.930;5.344;2022-09-01T06:15:27;6.85;;;2.72;;
12900;SDS011;6518;50.930;5.344;2022-09-01T06:17:55;8.80;;;3.47;;
12900;SDS011;6518;50.930;5.344;2022-09-01T06:20:22;9.00;;;2.97;;
12900;SDS011;6518;50.930;5.344;2022-09-01T06:22:50;7.30;;;2.95;;
12900;SDS011;6518;50.930;5.344;2022-09-01T06:25:17;11.65;;;3.13;;
12900;SDS011;6518;50.930;5.344;2022-09-01T06:27:44;6.30;;;3.05;;
12900;SDS011;6518;50.930;5.344;2022-09-01T06:30:12;5.47;;;3.30;;
12900;SDS011;6518;50.930;5.344;2022-09-01T06:32:44;6.32;;;3.67;;
12900;SDS011;6518;50.930;5.344;2022-09-01T06:35:14;10.15;;;3.38;;
12900;SDS011;6518;50.930;5.344;2022-09-01T06:37:42;5.55;;;3.60;;
12900;SDS011;6518;50.930;5.344;2022-09-01T06:40:12;6.65;;;3.40;;
12900;SDS011;6518;50.930;5.344;2022-09-01T06:42:42;10.15;;;3.53;;
12900;SDS011;6518;50.930;5.344;2022-09-01T06:45:11;10.38;;;3.45;;
12900;SDS011;6518;50.930;5.344;2022-09-01T06:47:39;4.78;;;3.20;;
12900;SDS011;6518;50.930;5.344;2022-09-01T06:50:09;8.45;;;3.75;;
12900;SDS011;6518;50.930;5.344;2022-09-01T06:52:39;14.18;;;3.40;;
12900;SDS011;6518;50.930;5.344;2022-09-01T06:55:07;5.45;;;3.38;;
12900;SDS011;6518;50.930;5.344;2022-09-01T06:57:36;7.68;;;3.33;;
12900;SDS011;6518;50.930;5.344;2022-09-01T07:00:05;7.53;;;3.35;;
12900;SDS011;6518;50.930;5.344;2022-09-01T07:02:42;9.52;;;3.58;;
12900;SDS011;6518;50.930;5.344;2022-09-01T07:05:09;7.55;;;3.25;;
12900;SDS011;6518;50.930;5.344;2022-09-01T07:07:39;8.57;;;3.92;;
12900;SDS011;6518;50.930;5.344;2022-09-01T07:10:07;3.25;;;2.75;;
12900;SDS011;6518;50.930;5.344;2022-09-01T07:12:36;4.50;;;2.95;;
12900;SDS011;6518;50.930;5.344;2022-09-01T07:15:05;4.82;;;3.03;;
12900;SDS011;6518;50.930;5.344;2022-09-01T07:17:33;6.22;;;3.17;;
12900;SDS011;6518;50.930;5.344;2022-09-01T07:20:00;4.32;;;2.70;;
12900;SDS011;6518;50.930;5.344;2022-09-01T07:22:28;6.68;;;2.65;;
12900;SDS011;6518;50.930;5.344;2022-09-01T07:24:55;3.47;;;2.95;;
12900;SDS011;6518;50.930;5.344;2022-09-01T07:27:22;5.35;;;2.78;;
12900;SDS011;6518;50.930;5.344;2022-09-01T07:29:54;5.60;;;3.20;;
12900;SDS011;6518;50.930;5.344;2022-09-01T07:32:21;8.20;;;2.90;;
12900;SDS011;6518;50.930;5.344;2022-09-01T07:34:48;4.10;;;2.70;;
12900;SDS011;6518;50.930;5.344;2022-09-01T07:37:16;7.22;;;2.80;;
12900;SDS011;6518;50.930;5.344;2022-09-01T07:39:46;5.88;;;3.03;;
12900;SDS011;6518;50.930;5.344;2022-09-01T07:42:15;7.45;;;2.60;;
12900;SDS011;6518;50.930;5.344;2022-09-01T07:44:42;8.40;;;2.80;;
12900;SDS011;6518;50.930;5.344;2022-09-01T07:47:11;7.32;;;2.70;;
12900;SDS011;6518;50.930;5.344;2022-09-01T07:49:39;4.97;;;2.67;;
12900;SDS011;6518;50.930;5.344;2022-09-01T07:52:06;6.53;;;2.95;;
12900;SDS011;6518;50.930;5.344;2022-09-01T07:54:34;11.90;;;3.10;;
12900;SDS011;6518;50.930;5.344;2022-09-01T07:57:01;8.93;;;2.85;;
12900;SDS011;6518;50.930;5.344;2022-09-01T07:59:29;10.23;;;3.38;;
12900;SDS011;6518;50.930;5.344;2022-09-01T08:01:57;9.07;;;3.40;;
12900;SDS011;6518;50.930;5.344;2022-09-01T08:04:30;6.70;;;2.90;;
12900;SDS011;6518;50.930;5.344;2022-09-01T08:06:58;5.30;;;2.58;;
12900;SDS011;6518;50.930;5.344;2022-09-01T08:09:25;7.05;;;2.40;;
12900;SDS011;6518;50.930;5.344;2022-09-01T08:11:52;7.70;;;2.50;;
12900;SDS011;6518;50.930;5.344;2022-09-01T08:14:18;7.70;;;2.60;;
12900;SDS011;6518;50.930;5.344;2022-09-01T08:16:45;10.18;;;3.38;;
12900;SDS011;6518;50.930;5.344;2022-09-01T08:19:12;14.32;;;3.28;;
12900;SDS011;6518;50.930;5.344;2022-09-01T08:21:41;5.85;;;2.67;;
12900;SDS011;6518;50.930;5.344;2022-09-01T08:24:07;7.05;;;2.65;;
12900;SDS011;6518;50.930;5.344;2022-09-01T08:26:34;8.90;;;2.70;;
12900;SDS011;6518;50.930;5.344;2022-09-01T08:29:01;5.35;;;2.88;;
12900;SDS011;6518;50.930;5.344;2022-09-01T08:31:29;11.95;;;3.45;;
12900;SDS011;6518;50.930;5.344;2022-09-01T08:33:56;4.70;;;3.10;;
12900;SDS011;6518;50.930;5.344;2022-09-01T08:36:24;9.43;;;3.03;;
12900;SDS011;6518;50.930;5.344;2022-09-01T08:38:52;6.40;;;3.03;;
12900;SDS011;6518;50.930;5.344;2022-09-01T08:41:36;9.40;;;3.03;;
12900;SDS011;6518;50.930;5.344;2022-09-01T08:44:09;9.70;;;3.10;;
12900;SDS011;6518;50.930;5.344;2022-09-01T08:46:43;7.03;;;2.70;;
12900;SDS011;6518;50.930;5.344;2022-09-01T08:49:13;4.07;;;2.35;;
12900;SDS011;6518;50.930;5.344;2022-09-01T08:51:42;8.13;;;2.83;;
12900;SDS011;6518;50.930;5.344;2022-09-01T08:54:17;5.93;;;2.50;;
12900;SDS011;6518;50.930;5.344;2022-09-01T08:56:50;7.82;;;2.55;;
12900;SDS011;6518;50.930;5.344;2022-09-01T08:59:19;3.65;;;2.35;;
12900;SDS011;6518;50.930;5.344;2022-09-01T09:01:48;6.60;;;2.53;;
12900;SDS011;6518;50.930;5.344;2022-09-01T09:04:29;3.35;;;2.17;;
12900;SDS011;6518;50.930;5.344;2022-09-01T09:07:12;5.00;;;2.20;;
12900;SDS011;6518;50.930;5.344;2022-09-01T09:09:57;4.65;;;2.55;;
12900;SDS011;6518;50.930;5.344;2022-09-01T09:12:36;4.85;;;2.35;;
12900;SDS011;6518;50.930;5.344;2022-09-01T09:15:10;4.82;;;2.30;;
12900;SDS011;6518;50.930;5.344;2022-09-01T09:17:44;3.22;;;1.80;;
12900;SDS011;6518;50.930;5.344;2022-09-01T09:20:15;3.42;;;1.55;;
12900;SDS011;6518;50.930;5.344;2022-09-01T09:22:43;5.25;;;1.92;;
12900;SDS011;6518;50.930;5.344;2022-09-01T09:25:15;3.65;;;2.08;;
12900;SDS011;6518;50.930;5.344;2022-09-01T09:27:44;3.67;;;2.13;;
12900;SDS011;6518;50.930;5.344;2022-09-01T09:30:13;3.75;;;2.03;;
12900;SDS011;6518;50.930;5.344;2022-09-01T09:32:45;2.60;;;1.75;;
12900;SDS011;6518;50.930;5.344;2022-09-01T09:35:16;3.95;;;2.00;;
12900;SDS011;6518;50.930;5.344;2022-09-01T09:37:48;3.80;;;1.90;;
12900;SDS011;6518;50.930;5.344;2022-09-01T09:40:18;5.10;;;2.42;;
12900;SDS011;6518;50.930;5.344;2022-09-01T09:43:03;4.47;;;2.13;;
12900;SDS011;6518;50.930;5.344;2022-09-01T09:45:33;6.70;;;2.38;;
12900;SDS011;6518;50.930;5.344;2022-09-01T09:48:04;6.88;;;1.90;;
12900;SDS011;6518;50.930;5.344;2022-09-01T09:50:34;3.90;;;1.92;;
12900;SDS011;6518;50.930;5.344;2022-09-01T09:53:11;7.25;;;2.15;;
12900;SDS011;6518;50.930;5.344;2022-09-01T09:55:52;4.47;;;1.92;;
12900;SDS011;6518;50.930;5.344;2022-09-01T09:58:22;3.88;;;2.15;;
12900;SDS011;6518;50.930;5.344;2022-09-01T10:00:59;2.60;;;1.65;;
12900;SDS011;6518;50.930;5.344;2022-09-01T10:03:40;3.05;;;1.60;;
12900;SDS011;6518;50.930;5.344;2022-09-01T10:06:10;2.45;;;1.90;;
12900;SDS011;6518;50.930;5.344;2022-09-01T10:08:40;6.38;;;1.95;;
12900;SDS011;6518;50.930;5.344;2022-09-01T10:11:24;4.60;;;2.15;;
12900;SDS011;6518;50.930;5.344;2022-09-01T10:13:54;5.45;;;1.98;;
12900;SDS011;6518;50.930;5.344;2022-09-01T10:16:23;4.47;;;1.70;;
12900;SDS011;6518;50.930;5.344;2022-09-01T10:18:55;5.00;;;1.60;;
12900;SDS011;6518;50.930;5.344;2022-09-01T10:21:27;4.40;;;1.80;;
12900;SDS011;6518;50.930;5.344;2022-09-01T10:23:58;2.40;;;1.65;;
12900;SDS011;6518;50.930;5.344;2022-09-01T10:26:28;5.22;;;1.92;;
12900;SDS011;6518;50.930;5.344;2022-09-01T10:29:06;3.63;;;1.70;;
12900;SDS011;6518;50.930;5.344;2022-09-01T10:31:38;5.65;;;1.88;;
12900;SDS011;6518;50.930;5.344;2022-09-01T10:34:05;1.98;;;1.67;;
12900;SDS011;6518;50.930;5.344;2022-09-01T10:36:38;3.40;;;1.88;;
12900;SDS011;6518;50.930;5.344;2022-09-01T10:39:09;3.05;;;1.60;;
12900;SDS011;6518;50.930;5.344;2022-09-01T10:44:32;3.03;;;1.65;;
12900;SDS011;6518;50.930;5.344;2022-09-01T10:47:01;3.08;;;1.60;;
12900;SDS011;6518;50.930;5.344;2022-09-01T10:55:36;2.50;;;1.67;;
12900;SDS011;6518;50.930;5.344;2022-09-01T10:58:20;2.55;;;1.38;;
12900;SDS011;6518;50.930;5.344;2022-09-01T11:01:08;8.60;;;1.73;;
12900;SDS011;6518;50.930;5.344;2022-09-01T11:09:22;3.22;;;1.40;;
12900;SDS011;6518;50.930;5.344;2022-09-01T11:11:59;2.30;;;1.40;;
12900;SDS011;6518;50.930;5.344;2022-09-01T11:14:49;5.10;;;1.40;;
12900;SDS011;6518;50.930;5.344;2022-09-01T11:17:19;3.25;;;1.25;;
12900;SDS011;6518;50.930;5.344;2022-09-01T11:22:56;3.13;;;1.30;;
12900;SDS011;6518;50.930;5.344;2022-09-01T11:25:31;2.33;;;1.30;;
12900;SDS011;6518;50.930;5.344;2022-09-01T11:28:06;1.45;;;1.00;;
12900;SDS011;6518;50.930;5.344;2022-09-01T11:31:02;1.63;;;1.25;;
12900;SDS011;6518;50.930;5.344;2022-09-01T11:34:16;2.80;;;1.33;;
12900;SDS011;6518;50.930;5.344;2022-09-01T11:36:46;3.28;;;1.63;;
12900;SDS011;6518;50.930;5.344;2022-09-01T11:42:15;3.42;;;1.40;;
12900;SDS011;6518;50.930;5.344;2022-09-01T11:44:46;5.47;;;1.52;;
12900;SDS011;6518;50.930;5.344;2022-09-01T11:47:18;2.28;;;1.30;;
12900;SDS011;6518;50.930;5.344;2022-09-01T11:49:51;5.20;;;1.50;;
12900;SDS011;6518;50.930;5.344;2022-09-01T11:52:21;2.38;;;1.30;;
12900;SDS011;6518;50.930;5.344;2022-09-01T11:54:50;3.85;;;1.63;;
12900;SDS011;6518;50.930;5.344;2022-09-01T11:57:20;10.25;;;1.67;;
12900;SDS011;6518;50.930;5.344;2022-09-01T11:59:49;1.75;;;1.17;;
12900;SDS011;6518;50.930;5.344;2022-09-01T12:02:18;3.85;;;1.58;;
12900;SDS011;6518;50.930;5.344;2022-09-01T12:04:47;1.48;;;1.20;;
12900;SDS011;6518;50.930;5.344;2022-09-01T12:07:23;3.20;;;1.50;;
12900;SDS011;6518;50.930;5.344;2022-09-01T12:09:53;1.95;;;1.20;;
12900;SDS011;6518;50.930;5.344;2022-09-01T12:12:30;4.40;;;1.20;;
12900;SDS011;6518;50.930;5.344;2022-09-01T12:14:59;4.55;;;1.80;;
12900;SDS011;6518;50.930;5.344;2022-09-01T12:17:30;4.43;;;1.60;;
12900;SDS011;6518;50.930;5.344;2022-09-01T12:22:46;2.88;;;1.40;;
12900;SDS011;6518;50.930;5.344;2022-09-01T12:25:17;8.23;;;1.38;;
12900;SDS011;6518;50.930;5.344;2022-09-01T12:27:47;7.93;;;1.73;;
12900;SDS011;6518;50.930;5.344;2022-09-01T12:30:14;5.85;;;1.40;;
12900;SDS011;6518;50.930;5.344;2022-09-01T12:32:43;1.52;;;1.30;;
12900;SDS011;6518;50.930;5.344;2022-09-01T12:35:13;1.73;;;1.23;;
12900;SDS011;6518;50.930;5.344;2022-09-01T12:37:43;3.03;;;1.50;;
12900;SDS011;6518;50.930;5.344;2022-09-01T12:40:20;2.72;;;1.33;;
12900;SDS011;6518;50.930;5.344;2022-09-01T12:42:50;2.53;;;1.38;;
12900;SDS011;6518;50.930;5.344;2022-09-01T12:48:18;2.40;;;1.30;;
12900;SDS011;6518;50.930;5.344;2022-09-01T12:50:49;2.90;;;1.50;;
12900;SDS011;6518;50.930;5.344;2022-09-01T12:53:19;2.70;;;1.30;;
12900;SDS011;6518;50.930;5.344;2022-09-01T12:56:00;3.08;;;1.30;;
12900;SDS011;6518;50.930;5.344;2022-09-01T12:58:42;4.55;;;1.30;;
12900;SDS011;6518;50.930;5.344;2022-09-01T13:01:26;5.68;;;1.40;;
12900;SDS011;6518;50.930;5.344;2022-09-01T13:04:08;2.38;;;1.20;;
12900;SDS011;6518;50.930;5.344;2022-09-01T13:06:38;2.35;;;1.40;;
12900;SDS011;6518;50.930;5.344;2022-09-01T13:09:04;3.45;;;1.30;;
12900;SDS011;6518;50.930;5.344;2022-09-01T13:11:31;4.95;;;1.60;;
12900;SDS011;6518;50.930;5.344;2022-09-01T13:13:58;4.18;;;1.42;;
12900;SDS011;6518;50.930;5.344;2022-09-01T13:16:25;5.75;;;1.80;;
12900;SDS011;6518;50.930;5.344;2022-09-01T13:18:52;3.63;;;1.30;;
12900;SDS011;6518;50.930;5.344;2022-09-01T13:21:21;4.45;;;1.50;;
12900;SDS011;6518;50.930;5.344;2022-09-01T13:23:48;7.78;;;1.63;;
12900;SDS011;6518;50.930;5.344;2022-09-01T13:26:15;6.57;;;1.70;;
12900;SDS011;6518;50.930;5.344;2022-09-01T13:28:42;8.25;;;1.85;;
12900;SDS011;6518;50.930;5.344;2022-09-01T13:31:09;2.58;;;1.48;;
12900;SDS011;6518;50.930;5.344;2022-09-01T13:33:37;3.47;;;1.40;;
12900;SDS011;6518;50.930;5.344;2022-09-01T13:36:04;3.88;;;1.25;;
12900;SDS011;6518;50.930;5.344;2022-09-01T13:38:32;3.75;;;1.40;;
12900;SDS011;6518;50.930;5.344;2022-09-01T13:40:59;4.30;;;1.60;;
12900;SDS011;6518;50.930;5.344;2022-09-01T13:43:27;3.33;;;1.30;;
12900;SDS011;6518;50.930;5.344;2022-09-01T13:45:55;4.22;;;1.20;;
12900;SDS011;6518;50.930;5.344;2022-09-01T13:48:22;5.13;;;1.40;;
12900;SDS011;6518;50.930;5.344;2022-09-01T13:50:50;1.63;;;1.33;;
12900;SDS011;6518;50.930;5.344;2022-09-01T13:53:18;4.30;;;1.50;;
12900;SDS011;6518;50.930;5.344;2022-09-01T13:55:46;6.30;;;1.70;;
12900;SDS011;6518;50.930;5.344;2022-09-01T13:58:14;4.07;;;1.35;;
12900;SDS011;6518;50.930;5.344;2022-09-01T14:00:42;2.00;;;1.30;;
12900;SDS011;6518;50.930;5.344;2022-09-01T14:03:12;4.18;;;1.58;;
12900;SDS011;6518;50.930;5.344;2022-09-01T14:05:42;4.68;;;1.30;;
12900;SDS011;6518;50.930;5.344;2022-09-01T14:08:11;5.43;;;1.40;;
12900;SDS011;6518;50.930;5.344;2022-09-01T14:10:40;1.60;;;1.40;;
12900;SDS011;6518;50.930;5.344;2022-09-01T14:13:10;6.13;;;1.40;;
12900;SDS011;6518;50.930;5.344;2022-09-01T14:15:38;5.28;;;1.50;;
12900;SDS011;6518;50.930;5.344;2022-09-01T14:18:05;4.88;;;1.40;;
12900;SDS011;6518;50.930;5.344;2022-09-01T14:20:34;3.05;;;1.40;;
12900;SDS011;6518;50.930;5.344;2022-09-01T14:23:03;5.28;;;1.70;;
12900;SDS011;6518;50.930;5.344;2022-09-01T14:25:31;3.45;;;1.45;;
12900;SDS011;6518;50.930;5.344;2022-09-01T14:28:00;3.25;;;1.20;;
12900;SDS011;6518;50.930;5.344;2022-09-01T14:30:29;2.33;;;1.30;;
12900;SDS011;6518;50.930;5.344;2022-09-01T14:32:57;3.03;;;1.40;;
12900;SDS011;6518;50.930;5.344;2022-09-01T14:35:24;4.93;;;1.40;;
12900;SDS011;6518;50.930;5.344;2022-09-01T14:37:52;4.10;;;1.33;;
12900;SDS011;6518;50.930;5.344;2022-09-01T14:40:20;6.60;;;1.40;;
12900;SDS011;6518;50.930;5.344;2022-09-01T14:42:49;4.32;;;1.95;;
12900;SDS011;6518;50.930;5.344;2022-09-01T14:45:18;4.53;;;1.83;;
12900;SDS011;6518;50.930;5.344;2022-09-01T14:47:48;5.18;;;1.45;;
12900;SDS011;6518;50.930;5.344;2022-09-01T14:50:17;3.33;;;1.63;;
12900;SDS011;6518;50.930;5.344;2022-09-01T14:52:46;3.13;;;1.42;;
12900;SDS011;6518;50.930;5.344;2022-09-01T14:55:14;2.17;;;1.35;;
12900;SDS011;6518;50.930;5.344;2022-09-01T14:57:41;2.80;;;1.30;;
12900;SDS011;6518;50.930;5.344;2022-09-01T15:00:09;5.88;;;1.70;;
12900;SDS011;6518;50.930;5.344;2022-09-01T15:02:38;3.83;;;1.60;;
12900;SDS011;6518;50.930;5.344;2022-09-01T15:05:08;5.00;;;1.42;;
12900;SDS011;6518;50.930;5.344;2022-09-01T15:07:36;2.80;;;1.33;;
12900;SDS011;6518;50.930;5.344;2022-09-01T15:10:04;2.25;;;1.52;;
12900;SDS011;6518;50.930;5.344;2022-09-01T15:12:33;3.78;;;1.50;;
12900;SDS011;6518;50.930;5.344;2022-09-01T15:15:01;2.80;;;1.50;;
12900;SDS011;6518;50.930;5.344;2022-09-01T15:17:28;3.67;;;1.80;;
12900;SDS011;6518;50.930;5.344;2022-09-01T15:19:55;3.88;;;1.85;;
12900;SDS011;6518;50.930;5.344;2022-09-01T15:22:43;1.92;;;1.40;;
12900;SDS011;6518;50.930;5.344;2022-09-01T15:25:11;4.30;;;1.58;;
12900;SDS011;6518;50.930;5.344;2022-09-01T15:27:37;2.30;;;1.50;;
12900;SDS011;6518;50.930;5.344;2022-09-01T15:30:05;2.80;;;1.60;;
12900;SDS011;6518;50.930;5.344;2022-09-01T15:32:39;2.47;;;1.60;;
12900;SDS011;6518;50.930;5.344;2022-09-01T15:35:07;1.90;;;1.50;;
12900;SDS011;6518;50.930;5.344;2022-09-01T15:37:34;3.97;;;1.50;;
12900;SDS011;6518;50.930;5.344;2022-09-01T15:40:03;5.45;;;1.70;;
12900;SDS011;6518;50.930;5.344;2022-09-01T15:42:32;4.25;;;1.90;;
12900;SDS011;6518;50.930;5.344;2022-09-01T15:45:00;2.97;;;1.60;;